MDBH

Maria Montez International Airport

Airport
ICAO code
MDBH
IATA Code
BRX
Summary
ICAO Region
CARSAM
ICAO Territory
Location

Barahona, Dominican Republic

Serving
Barahona
Elevation
10 ft
Coordinates
18° 14' 57" N , 71° 7' 24" W
KCC
Aw
Airport WX
Tropical Revolving Storm
Metar
Observation
MDBH 121500Z 16015KT 9999 FEW020CB FEW022 SCT300 33/27 Q1018 CB/SE/S/SW
Station
Barahona
Date/Time
2022-08-12 15:00:00
Wind direction
160°
Wind speed
15 kts
Lowest cloud amount
few clouds
Temperature
33°C
Dew point
27°C
Humidity
70%
QNH
1018 hPa
Weather condition
n/a

María Montez International Airport is an international airport located in Barahona, Dominican Republic.

Climatology

Tropical savannah climate (Köppen climate classification Aw)

Runways

Designator Length Width Surface Rops
12/30 3000 45 ASP No/No

Airport map

Aerial View

SKYbrary Partners:

Safety knowledge contributed by: